Time,TemperatureF,DewpointF,PressureIn,WindDirection,WindDirectionDegrees,WindSpeedMPH,WindSpeedGustMPH,Humidity,HourlyPrecipIn,Conditions,Clouds,dailyrainin,SoftwareType,DateUTC
2013-08-12 00:00:00,83.1,36.6,29.64,WNW,295,0.0,1.0,19,0.00,,,0.00,Wunderground v.1.15,2013-08-12 07:00:00,
2013-08-12 00:06:00,83.6,37.0,29.64,WNW,284,1.0,2.0,19,0.00,,,0.00,Wunderground v.1.15,2013-08-12 07:06:00,
2013-08-12 00:11:00,83.7,37.0,29.64,WNW,289,1.0,1.0,19,0.00,,,0.00,Wunderground v.1.15,2013-08-12 07:11:00,
2013-08-12 00:17:00,83.2,36.6,29.64,WNW,296,1.0,1.0,19,0.00,,,0.00,Wunderground v.1.15,2013-08-12 07:17:00,
2013-08-12 00:23:00,82.6,37.5,29.64,NW,307,1.0,1.0,20,0.00,,,0.00,Wunderground v.1.15,2013-08-12 07:23:00,
2013-08-12 00:29:00,82.4,37.3,29.64,NW,307,1.0,1.0,20,0.00,,,0.00,Wunderground v.1.15,2013-08-12 07:29:00,
2013-08-12 00:34:00,82.6,38.7,29.64,WNW,289,1.0,2.0,21,0.00,,,0.00,Wunderground v.1.15,2013-08-12 07:34:00,
2013-08-12 00:40:00,82.1,40.6,29.64,NW,307,1.0,1.0,23,0.00,,,0.00,Wunderground v.1.15,2013-08-12 07:40:00,
2013-08-12 00:45:00,82.3,40.8,29.64,NW,311,1.0,1.0,23,0.00,,,0.00,Wunderground v.1.15,2013-08-12 07:45:00,
2013-08-12 00:51:00,82.3,43.0,29.64,NW,311,1.0,1.0,25,0.00,,,0.00,Wunderground v.1.15,2013-08-12 07:51:00,
2013-08-12 00:57:00,82.1,44.8,29.64,NW,311,1.0,2.0,27,0.00,,,0.00,Wunderground v.1.15,2013-08-12 07:57:00,
2013-08-12 01:02:00,81.9,46.5,29.64,WNW,297,1.0,2.0,29,0.00,,,0.00,Wunderground v.1.15,2013-08-12 08:02:00,
2013-08-12 01:08:00,81.4,45.2,29.64,NNW,334,1.0,2.0,28,0.00,,,0.00,Wunderground v.1.15,2013-08-12 08:08:00,
2013-08-12 01:13:00,81.0,43.9,29.64,WNW,295,1.0,2.0,27,0.00,,,0.00,Wunderground v.1.15,2013-08-12 08:13:00,
2013-08-12 01:18:00,82.1,43.8,29.64,West,273,2.0,2.0,26,0.00,,,0.00,Wunderground v.1.15,2013-08-12 08:18:00,
2013-08-12 01:23:00,82.6,43.2,29.64,West,273,1.0,2.0,25,0.00,,,0.00,Wunderground v.1.15,2013-08-12 08:23:00,
2013-08-12 01:29:00,82.7,42.2,29.64,WNW,288,1.0,2.0,24,0.00,,,0.00,Wunderground v.1.15,2013-08-12 08:29:00,
2013-08-12 01:34:00,82.9,46.4,29.64,West,277,2.0,2.0,28,0.00,,,0.00,Wunderground v.1.15,2013-08-12 08:34:00,
2013-08-12 01:40:00,82.5,48.8,29.64,West,271,2.0,2.0,31,0.00,,,0.00,Wunderground v.1.15,2013-08-12 08:40:00,
2013-08-12 01:45:00,82.0,49.2,29.64,West,280,1.0,3.0,32,0.00,,,0.00,Wunderground v.1.15,2013-08-12 08:45:00,
2013-08-12 01:51:00,82.1,50.1,29.63,West,267,2.0,2.0,33,0.00,,,0.00,Wunderground v.1.15,2013-08-12 08:51:00,
2013-08-12 01:56:00,82.0,50.1,29.63,West,271,1.0,2.0,33,0.00,,,0.00,Wunderground v.1.15,2013-08-12 08:56:00,
2013-08-12 02:02:00,82.0,48.4,29.63,West,281,2.0,2.0,31,0.00,,,0.00,Wunderground v.1.15,2013-08-12 09:02:00,
2013-08-12 02:08:00,82.1,47.6,29.63,WNW,294,2.0,3.0,30,0.00,,,0.00,Wunderground v.1.15,2013-08-12 09:08:00,
2013-08-12 02:14:00,81.8,49.1,29.63,WNW,298,3.0,4.0,32,0.00,,,0.00,Wunderground v.1.15,2013-08-12 09:14:00,
2013-08-12 02:20:00,81.4,47.9,29.63,WNW,301,3.0,3.0,31,0.00,,,0.00,Wunderground v.1.15,2013-08-12 09:20:00,
2013-08-12 02:25:00,81.1,48.4,29.63,WNW,297,3.0,3.0,32,0.00,,,0.00,Wunderground v.1.15,2013-08-12 09:25:00,
2013-08-12 02:31:00,81.2,50.9,29.63,WNW,296,3.0,3.0,35,0.00,,,0.00,Wunderground v.1.15,2013-08-12 09:31:00,
2013-08-12 02:36:00,80.8,49.0,29.63,WNW,292,3.0,4.0,33,0.00,,,0.00,Wunderground v.1.15,2013-08-12 09:36:00,
2013-08-12 02:41:00,80.5,48.7,29.63,WNW,301,4.0,5.0,33,0.00,,,0.00,Wunderground v.1.15,2013-08-12 09:41:00,
2013-08-12 02:47:00,80.3,50.1,29.63,WNW,301,5.0,6.0,35,0.00,,,0.00,Wunderground v.1.15,2013-08-12 09:47:00,
2013-08-12 02:52:00,79.7,51.8,29.63,WNW,297,5.0,5.0,38,0.00,,,0.00,Wunderground v.1.15,2013-08-12 09:52:00,
2013-08-12 02:58:00,79.6,54.5,29.62,WNW,296,5.0,6.0,42,0.00,,,0.00,Wunderground v.1.15,2013-08-12 09:58:00,
2013-08-12 03:03:00,79.9,56.0,29.63,WNW,301,6.0,7.0,44,0.00,,,0.00,Wunderground v.1.15,2013-08-12 10:03:00,
2013-08-12 03:09:00,79.6,57.0,29.62,NW,304,7.0,8.0,46,0.00,,,0.00,Wunderground v.1.15,2013-08-12 10:09:00,
2013-08-12 03:14:00,79.6,57.6,29.62,WNW,303,6.0,7.0,47,0.00,,,0.00,Wunderground v.1.15,2013-08-12 10:14:00,
2013-08-12 03:20:00,79.8,57.2,29.62,WNW,298,6.0,6.0,46,0.00,,,0.00,Wunderground v.1.15,2013-08-12 10:20:00,
2013-08-12 03:26:00,79.9,56.0,29.62,NW,309,5.0,6.0,44,0.00,,,0.00,Wunderground v.1.15,2013-08-12 10:26:00,
2013-08-12 03:32:00,80.2,53.7,29.62,NW,314,5.0,6.0,40,0.00,,,0.00,Wunderground v.1.15,2013-08-12 10:32:00,
2013-08-12 03:38:00,80.1,54.3,29.61,WNW,295,5.0,6.0,41,0.00,,,0.00,Wunderground v.1.15,2013-08-12 10:38:00,
2013-08-12 03:43:00,80.2,53.7,29.61,WNW,301,5.0,6.0,40,0.00,,,0.00,Wunderground v.1.15,2013-08-12 10:43:00,
2013-08-12 03:49:00,80.3,53.8,29.61,WNW,301,6.0,7.0,40,0.00,,,0.00,Wunderground v.1.15,2013-08-12 10:49:00,
2013-08-12 03:55:00,80.1,53.6,29.61,NW,304,5.0,6.0,40,0.00,,,0.00,Wunderground v.1.15,2013-08-12 10:55:00,
2013-08-12 04:01:00,79.9,53.4,29.61,WNW,297,4.0,4.0,40,0.00,,,0.00,Wunderground v.1.15,2013-08-12 11:01:00,
2013-08-12 04:07:00,79.6,53.8,29.61,SSE,163,3.0,4.0,41,0.00,,,0.00,Wunderground v.1.15,2013-08-12 11:07:00,
2013-08-12 04:13:00,78.9,53.9,29.61,North,354,2.0,3.0,42,0.00,,,0.00,Wunderground v.1.15,2013-08-12 11:13:00,
2013-08-12 04:19:00,78.5,53.5,29.61,North,4,2.0,3.0,42,0.00,,,0.00,Wunderground v.1.15,2013-08-12 11:19:00,
2013-08-12 04:25:00,78.6,53.6,29.61,NE,40,2.0,3.0,42,0.00,,,0.00,Wunderground v.1.15,2013-08-12 11:25:00,
2013-08-12 04:31:00,78.5,52.8,29.61,North,5,1.0,1.0,41,0.00,,,0.00,Wunderground v.1.15,2013-08-12 11:31:00,
2013-08-12 04:36:00,78.5,52.8,29.61,NNW,334,0.0,1.0,41,0.00,,,0.00,Wunderground v.1.15,2013-08-12 11:36:00,
2013-08-12 04:41:00,78.4,52.7,29.61,NW,310,0.0,2.0,41,0.00,,,0.00,Wunderground v.1.15,2013-08-12 11:41:00,
2013-08-12 04:47:00,78.6,52.3,29.61,NNW,328,1.0,3.0,40,0.00,,,0.00,Wunderground v.1.15,2013-08-12 11:47:00,
2013-08-12 04:52:00,78.6,51.6,29.61,NNW,334,3.0,5.0,39,0.00,,,0.00,Wunderground v.1.15,2013-08-12 11:52:00,
2013-08-12 04:58:00,79.0,51.2,29.61,NNW,329,5.0,6.0,38,0.00,,,0.00,Wunderground v.1.15,2013-08-12 11:58:00,
2013-08-12 05:03:00,79.4,50.1,29.61,NW,320,5.0,6.0,36,0.00,,,0.00,Wunderground v.1.15,2013-08-12 12:03:00,
2013-08-12 05:09:00,79.6,50.3,29.61,NW,326,6.0,8.0,36,0.00,,,0.00,Wunderground v.1.15,2013-08-12 12:09:00,
2013-08-12 05:15:00,80.0,49.1,29.61,NW,326,6.0,6.0,34,0.00,,,0.00,Wunderground v.1.15,2013-08-12 12:15:00,
2013-08-12 05:21:00,80.4,49.5,29.61,NNW,340,5.0,6.0,34,0.00,,,0.00,Wunderground v.1.15,2013-08-12 12:21:00,
2013-08-12 05:26:00,80.7,48.9,29.61,NW,326,5.0,6.0,33,0.00,,,0.00,Wunderground v.1.15,2013-08-12 12:26:00,
2013-08-12 05:32:00,80.9,49.1,29.62,NNW,340,6.0,6.0,33,0.00,,,0.00,Wunderground v.1.15,2013-08-12 12:32:00,
2013-08-12 05:38:00,80.8,49.0,29.62,NW,320,5.0,6.0,33,0.00,,,0.00,Wunderground v.1.15,2013-08-12 12:38:00,
2013-08-12 05:43:00,81.0,48.4,29.62,WNW,301,3.0,4.0,32,0.00,,,0.00,Wunderground v.1.15,2013-08-12 12:43:00,
2013-08-12 05:49:00,80.7,48.1,29.62,WNW,294,2.0,4.0,32,0.00,,,0.00,Wunderground v.1.15,2013-08-12 12:49:00,
2013-08-12 05:55:00,80.4,48.7,29.63,NNW,340,2.0,3.0,33,0.00,,,0.00,Wunderground v.1.15,2013-08-12 12:55:00,
2013-08-12 06:01:00,80.6,48.0,29.63,NW,323,3.0,5.0,32,0.00,,,0.00,Wunderground v.1.15,2013-08-12 13:01:00,
2013-08-12 06:06:00,80.7,48.1,29.63,NW,326,3.0,5.0,32,0.00,,,0.00,Wunderground v.1.15,2013-08-12 13:06:00,
2013-08-12 06:11:00,81.2,47.7,29.63,NW,313,2.0,2.0,31,0.00,,,0.00,Wunderground v.1.15,2013-08-12 13:11:00,
2013-08-12 06:17:00,82.2,47.7,29.63,WNW,297,0.0,2.0,30,0.00,,,0.00,Wunderground v.1.15,2013-08-12 13:17:00,
2013-08-12 06:22:00,82.7,48.1,29.63,West,266,0.0,0.0,30,0.00,,,0.00,Wunderground v.1.15,2013-08-12 13:22:00,
2013-08-12 06:28:00,82.8,48.2,29.63,NNW,338,1.0,4.0,30,0.00,,,0.00,Wunderground v.1.15,2013-08-12 13:28:00,
2013-08-12 06:33:00,82.7,49.0,29.63,NNW,340,2.0,3.0,31,0.00,,,0.00,Wunderground v.1.15,2013-08-12 13:33:00,
2013-08-12 06:39:00,82.8,49.1,29.63,NW,319,3.0,3.0,31,0.00,,,0.00,Wunderground v.1.15,2013-08-12 13:39:00,
2013-08-12 06:44:00,83.2,46.7,29.64,West,268,1.0,2.0,28,0.00,,,0.00,Wunderground v.1.15,2013-08-12 13:44:00,
2013-08-12 06:50:00,84.2,46.6,29.64,West,271,1.0,1.0,27,0.00,,,0.00,Wunderground v.1.15,2013-08-12 13:50:00,
2013-08-12 06:55:00,84.5,44.8,29.64,WSW,250,1.0,2.0,25,0.00,,,0.00,Wunderground v.1.15,2013-08-12 13:55:00,
2013-08-12 07:01:00,84.8,45.1,29.64,West,260,1.0,1.0,25,0.00,,,0.00,Wunderground v.1.15,2013-08-12 14:01:00,
2013-08-12 07:07:00,85.6,45.7,29.64,West,260,1.0,1.0,25,0.00,,,0.00,Wunderground v.1.15,2013-08-12 14:07:00,
2013-08-12 07:13:00,86.1,46.2,29.64,SSW,204,0.0,3.0,25,0.00,,,0.00,Wunderground v.1.15,2013-08-12 14:13:00,
2013-08-12 07:19:00,85.0,46.3,29.64,SSW,209,2.0,4.0,26,0.00,,,0.00,Wunderground v.1.15,2013-08-12 14:19:00,
2013-08-12 07:24:00,84.7,46.0,29.64,West,260,2.0,2.0,26,0.00,,,0.00,Wunderground v.1.15,2013-08-12 14:24:00,
2013-08-12 07:30:00,84.7,46.0,29.64,SW,233,2.0,2.0,26,0.00,,,0.00,Wunderground v.1.15,2013-08-12 14:30:00,
2013-08-12 07:35:00,84.9,47.2,29.64,SSW,203,1.0,2.0,27,0.00,,,0.00,Wunderground v.1.15,2013-08-12 14:35:00,
2013-08-12 07:40:00,85.0,49.2,29.64,SW,219,2.0,2.0,29,0.00,,,0.00,Wunderground v.1.15,2013-08-12 14:40:00,
2013-08-12 07:45:00,85.3,49.4,29.64,SW,219,1.0,2.0,29,0.00,,,0.00,Wunderground v.1.15,2013-08-12 14:45:00,
2013-08-12 07:51:00,85.2,49.4,29.64,SW,233,2.0,5.0,29,0.00,,,0.00,Wunderground v.1.15,2013-08-12 14:51:00,
2013-08-12 07:57:00,85.2,48.4,29.64,SW,232,3.0,5.0,28,0.00,,,0.00,Wunderground v.1.15,2013-08-12 14:57:00,
2013-08-12 08:02:00,85.1,51.1,29.64,South,174,2.0,3.0,31,0.00,,,0.00,Wunderground v.1.15,2013-08-12 15:02:00,
2013-08-12 08:08:00,84.6,53.9,29.64,SSE,166,3.0,5.0,35,0.00,,,0.00,Wunderground v.1.15,2013-08-12 15:08:00,
2013-08-12 08:13:00,84.3,55.9,29.65,SSW,201,4.0,5.0,38,0.00,,,0.00,Wunderground v.1.15,2013-08-12 15:13:00,
2013-08-12 08:19:00,84.0,57.1,29.64,SSE,151,3.0,5.0,40,0.00,,,0.00,Wunderground v.1.15,2013-08-12 15:19:00,
2013-08-12 08:24:00,83.8,58.3,29.65,SW,225,3.0,5.0,42,0.00,,,0.00,Wunderground v.1.15,2013-08-12 15:24:00,
2013-08-12 08:30:00,83.5,58.6,29.64,South,172,3.0,3.0,43,0.00,,,0.00,Wunderground v.1.15,2013-08-12 15:30:00,
2013-08-12 08:35:00,83.9,57.7,29.65,SW,236,3.0,4.0,41,0.00,,,0.00,Wunderground v.1.15,2013-08-12 15:35:00,
2013-08-12 08:41:00,85.1,58.1,29.64,East,101,2.0,2.0,40,0.00,,,0.00,Wunderground v.1.15,2013-08-12 15:41:00,
2013-08-12 08:47:00,85.0,55.8,29.64,SE,127,2.0,4.0,37,0.00,,,0.00,Wunderground v.1.15,2013-08-12 15:47:00,
2013-08-12 08:52:00,85.5,56.3,29.64,SSW,196,2.0,3.0,37,0.00,,,0.00,Wunderground v.1.15,2013-08-12 15:52:00,
2013-08-12 08:57:00,86.1,55.2,29.65,SW,233,2.0,3.0,35,0.00,,,0.00,Wunderground v.1.15,2013-08-12 15:57:00,
2013-08-12 09:02:00,87.4,55.6,29.65,SE,139,1.0,2.0,34,0.00,,,0.00,Wunderground v.1.15,2013-08-12 16:02:00,
2013-08-12 09:08:00,88.3,54.7,29.64,SW,236,1.0,3.0,32,0.00,,,0.00,Wunderground v.1.15,2013-08-12 16:08:00,
2013-08-12 09:13:00,89.5,54.0,29.64,NE,45,1.0,2.0,30,0.00,,,0.00,Wunderground v.1.15,2013-08-12 16:13:00,
2013-08-12 09:19:00,89.3,52.9,29.65,SE,141,2.0,5.0,29,0.00,,,0.00,Wunderground v.1.15,2013-08-12 16:19:00,
2013-08-12 09:24:00,89.6,53.1,29.65,SSE,160,2.0,3.0,29,0.00,,,0.00,Wunderground v.1.15,2013-08-12 16:24:00,
2013-08-12 09:30:00,90.9,49.1,29.65,South,170,2.0,2.0,24,0.00,,,0.00,Wunderground v.1.15,2013-08-12 16:30:00,
2013-08-12 09:35:00,91.7,51.9,29.65,SSW,212,2.0,4.0,26,0.00,,,0.00,Wunderground v.1.15,2013-08-12 16:35:00,
2013-08-12 09:40:00,91.5,52.8,29.65,SE,143,2.0,5.0,27,0.00,,,0.00,Wunderground v.1.15,2013-08-12 16:40:00,
2013-08-12 09:42:00,91.3,52.6,29.65,South,190,2.0,5.0,27,0.00,,,0.00,Wunderground v.1.15,2013-08-12 16:42:00,
2013-08-12 09:48:00,89.9,52.4,29.65,SSW,211,3.0,5.0,28,0.00,,,0.00,Wunderground v.1.15,2013-08-12 16:48:00,
2013-08-12 09:53:00,90.2,53.6,29.65,SW,214,3.0,6.0,29,0.00,,,0.00,Wunderground v.1.15,2013-08-12 16:53:00,
2013-08-12 09:59:00,91.5,52.8,29.65,SE,124,4.0,6.0,27,0.00,,,0.00,Wunderground v.1.15,2013-08-12 16:59:00,
2013-08-12 10:04:00,91.5,52.8,29.65,WSW,246,3.0,6.0,27,0.00,,,0.00,Wunderground v.1.15,2013-08-12 17:04:00,
2013-08-12 10:09:00,91.8,53.1,29.65,SW,217,3.0,6.0,27,0.00,,,0.00,Wunderground v.1.15,2013-08-12 17:09:00,
2013-08-12 10:14:00,91.7,54.0,29.65,SSW,207,3.0,5.0,28,0.00,,,0.00,Wunderground v.1.15,2013-08-12 17:14:00,
2013-08-12 10:20:00,92.5,55.6,29.65,South,186,3.0,3.0,29,0.00,,,0.00,Wunderground v.1.15,2013-08-12 17:20:00,
2013-08-12 10:26:00,93.7,55.7,29.65,SW,231,2.0,7.0,28,0.00,,,0.00,Wunderground v.1.15,2013-08-12 17:26:00,
2013-08-12 10:31:00,92.7,52.8,29.65,SSW,200,3.0,3.0,26,0.00,,,0.00,Wunderground v.1.15,2013-08-12 17:31:00,
2013-08-12 10:37:00,92.6,54.7,29.64,SSE,156,2.0,3.0,28,0.00,,,0.00,Wunderground v.1.15,2013-08-12 17:37:00,
2013-08-12 10:43:00,93.0,56.0,29.64,NNW,345,2.0,5.0,29,0.00,,,0.00,Wunderground v.1.15,2013-08-12 17:43:00,
2013-08-12 10:49:00,93.2,57.2,29.64,South,184,2.0,5.0,30,0.00,,,0.00,Wunderground v.1.15,2013-08-12 17:49:00,
2013-08-12 10:54:00,94.1,57.9,29.64,South,177,3.0,6.0,30,0.00,,,0.00,Wunderground v.1.15,2013-08-12 17:54:00,
2013-08-12 11:00:00,95.4,59.1,29.64,ESE,108,3.0,8.0,30,0.00,,,0.00,Wunderground v.1.15,2013-08-12 18:00:00,
2013-08-12 11:05:00,94.6,59.3,29.64,SW,214,4.0,8.0,31,0.00,,,0.00,Wunderground v.1.15,2013-08-12 18:05:00,
2013-08-12 11:10:00,95.4,59.1,29.64,SE,130,3.0,6.0,30,0.00,,,0.00,Wunderground v.1.15,2013-08-12 18:10:00,
2013-08-12 11:16:00,95.6,59.2,29.64,SE,136,3.0,7.0,30,0.00,,,0.00,Wunderground v.1.15,2013-08-12 18:16:00,
2013-08-12 11:21:00,96.3,59.8,29.63,SE,138,4.0,5.0,30,0.00,,,0.00,Wunderground v.1.15,2013-08-12 18:21:00,
2013-08-12 11:26:00,95.7,59.3,29.63,SE,127,3.0,5.0,30,0.00,,,0.00,Wunderground v.1.15,2013-08-12 18:26:00,
2013-08-12 11:31:00,96.1,59.7,29.63,SW,228,3.0,3.0,30,0.00,,,0.00,Wunderground v.1.15,2013-08-12 18:31:00,
2013-08-12 11:37:00,97.0,59.5,29.63,SSW,200,3.0,14.0,29,0.00,,,0.00,Wunderground v.1.15,2013-08-12 18:37:00,
2013-08-12 11:42:00,96.0,59.6,29.63,SE,128,4.0,4.0,30,0.00,,,0.00,Wunderground v.1.15,2013-08-12 18:42:00,
2013-08-12 11:48:00,97.2,59.6,29.62,SE,131,5.0,8.0,29,0.00,,,0.00,Wunderground v.1.15,2013-08-12 18:48:00,
2013-08-12 11:53:00,97.0,58.5,29.62,ESE,122,4.0,5.0,28,0.00,,,0.00,Wunderground v.1.15,2013-08-12 18:53:00,
2013-08-12 11:59:00,97.6,59.0,29.62,SSW,199,2.0,5.0,28,0.00,,,0.00,Wunderground v.1.15,2013-08-12 18:59:00,
2013-08-12 12:04:00,97.0,59.5,29.62,South,184,2.0,3.0,29,0.00,,,0.00,Wunderground v.1.15,2013-08-12 19:04:00,
2013-08-12 12:10:00,98.4,58.7,29.61,WSW,240,4.0,6.0,27,0.00,,,0.00,Wunderground v.1.15,2013-08-12 19:10:00,
2013-08-12 12:15:00,97.8,57.1,29.61,SSW,207,8.0,15.0,26,0.00,,,0.00,Wunderground v.1.15,2013-08-12 19:15:00,
2013-08-12 12:21:00,97.3,57.7,29.61,West,275,8.0,9.0,27,0.00,,,0.00,Wunderground v.1.15,2013-08-12 19:21:00,
2013-08-12 12:26:00,98.5,57.7,29.61,SSW,207,5.0,13.0,26,0.00,,,0.00,Wunderground v.1.15,2013-08-12 19:26:00,
2013-08-12 12:31:00,98.2,57.4,29.61,SW,236,7.0,7.0,26,0.00,,,0.00,Wunderground v.1.15,2013-08-12 19:31:00,
2013-08-12 12:37:00,99.1,56.0,29.60,SSW,200,7.0,8.0,24,0.00,,,0.00,Wunderground v.1.15,2013-08-12 19:37:00,
2013-08-12 12:42:00,98.4,56.5,29.60,SW,236,6.0,11.0,25,0.00,,,0.00,Wunderground v.1.15,2013-08-12 19:42:00,
2013-08-12 12:48:00,96.4,57.0,29.60,WSW,256,7.0,11.0,27,0.00,,,0.00,Wunderground v.1.15,2013-08-12 19:48:00,
2013-08-12 12:53:00,95.4,57.1,29.60,West,281,6.0,6.0,28,0.00,,,0.00,Wunderground v.1.15,2013-08-12 19:53:00,
2013-08-12 12:59:00,95.1,56.9,29.60,NNE,23,3.0,7.0,28,0.00,,,0.00,Wunderground v.1.15,2013-08-12 19:59:00,
2013-08-12 13:05:00,96.4,57.0,29.60,ESE,122,5.0,12.0,27,0.00,,,0.00,Wunderground v.1.15,2013-08-12 20:05:00,
2013-08-12 13:11:00,97.2,57.6,29.59,East,94,5.0,6.0,27,0.00,,,0.00,Wunderground v.1.15,2013-08-12 20:11:00,
2013-08-12 13:17:00,97.1,56.5,29.59,WSW,242,3.0,6.0,26,0.00,,,0.00,Wunderground v.1.15,2013-08-12 20:17:00,
2013-08-12 13:22:00,97.3,57.7,29.59,SSW,201,4.0,7.0,27,0.00,,,0.00,Wunderground v.1.15,2013-08-12 20:22:00,
2013-08-12 13:28:00,97.9,58.2,29.59,SW,224,6.0,10.0,27,0.00,,,0.00,Wunderground v.1.15,2013-08-12 20:28:00,
2013-08-12 13:33:00,97.5,57.9,29.58,WNW,282,7.0,11.0,27,0.00,,,0.00,Wunderground v.1.15,2013-08-12 20:33:00,
2013-08-12 13:39:00,97.9,57.2,29.58,SSW,200,5.0,11.0,26,0.00,,,0.00,Wunderground v.1.15,2013-08-12 20:39:00,
2013-08-12 13:44:00,98.8,58.0,29.58,SW,229,5.0,9.0,26,0.00,,,0.00,Wunderground v.1.15,2013-08-12 20:44:00,
2013-08-12 13:50:00,99.3,58.4,29.58,SSW,208,6.0,6.0,26,0.00,,,0.00,Wunderground v.1.15,2013-08-12 20:50:00,
2013-08-12 13:55:00,99.6,57.5,29.58,SSW,195,5.0,9.0,25,0.00,,,0.00,Wunderground v.1.15,2013-08-12 20:55:00,
2013-08-12 14:00:00,99.2,57.2,29.57,SSW,211,7.0,8.0,25,0.00,,,0.00,Wunderground v.1.15,2013-08-12 21:00:00,
2013-08-12 14:06:00,98.6,56.7,29.57,SE,129,8.0,11.0,25,0.00,,,0.00,Wunderground v.1.15,2013-08-12 21:06:00,
2013-08-12 14:12:00,99.1,56.0,29.57,South,176,8.0,9.0,24,0.00,,,0.00,Wunderground v.1.15,2013-08-12 21:12:00,
2013-08-12 14:18:00,99.2,56.1,29.57,WSW,254,8.0,9.0,24,0.00,,,0.00,Wunderground v.1.15,2013-08-12 21:18:00,
2013-08-12 14:24:00,99.2,54.9,29.57,SW,228,7.0,13.0,23,0.00,,,0.00,Wunderground v.1.15,2013-08-12 21:24:00,
2013-08-12 14:30:00,99.2,54.9,29.57,SSW,203,8.0,8.0,23,0.00,,,0.00,Wunderground v.1.15,2013-08-12 21:30:00,
2013-08-12 14:35:00,98.9,54.6,29.57,WSW,237,6.0,8.0,23,0.00,,,0.00,Wunderground v.1.15,2013-08-12 21:35:00,
2013-08-12 14:41:00,98.6,54.4,29.56,West,270,7.0,14.0,23,0.00,,,0.00,Wunderground v.1.15,2013-08-12 21:41:00,
2013-08-12 14:46:00,99.0,53.5,29.56,SW,221,9.0,14.0,22,0.00,,,0.00,Wunderground v.1.15,2013-08-12 21:46:00,
2013-08-12 14:51:00,99.4,53.8,29.56,SW,219,8.0,9.0,22,0.00,,,0.00,Wunderground v.1.15,2013-08-12 21:51:00,
2013-08-12 14:57:00,98.4,54.2,29.56,SSW,211,6.0,10.0,23,0.00,,,0.00,Wunderground v.1.15,2013-08-12 21:57:00,
2013-08-12 15:02:00,98.6,54.4,29.56,SW,224,5.0,5.0,23,0.00,,,0.00,Wunderground v.1.15,2013-08-12 22:02:00,
2013-08-12 15:07:00,99.6,52.7,29.56,WSW,257,5.0,15.0,21,0.00,,,0.00,Wunderground v.1.15,2013-08-12 22:07:00,
2013-08-12 15:12:00,99.0,53.5,29.55,WSW,246,7.0,11.0,22,0.00,,,0.00,Wunderground v.1.15,2013-08-12 22:12:00,
2013-08-12 15:18:00,99.9,51.7,29.55,South,170,6.0,11.0,20,0.00,,,0.00,Wunderground v.1.15,2013-08-12 22:18:00,
2013-08-12 15:23:00,99.1,49.6,29.55,West,281,8.0,12.0,19,0.00,,,0.00,Wunderground v.1.15,2013-08-12 22:23:00,
2013-08-12 15:29:00,98.5,49.1,29.54,NNE,15,8.0,15.0,19,0.00,,,0.00,Wunderground v.1.15,2013-08-12 22:29:00,
2013-08-12 15:34:00,98.9,50.8,29.55,SSW,198,8.0,15.0,20,0.00,,,0.00,Wunderground v.1.15,2013-08-12 22:34:00,
2013-08-12 15:39:00,98.8,49.4,29.54,SW,236,8.0,15.0,19,0.00,,,0.00,Wunderground v.1.15,2013-08-12 22:39:00,
2013-08-12 15:44:00,99.0,49.5,29.54,NNW,346,7.0,8.0,19,0.00,,,0.00,Wunderground v.1.15,2013-08-12 22:44:00,
2013-08-12 15:50:00,99.2,49.7,29.54,South,188,6.0,7.0,19,0.00,,,0.00,Wunderground v.1.15,2013-08-12 22:50:00,
2013-08-12 15:55:00,99.1,51.0,29.54,SW,221,7.0,14.0,20,0.00,,,0.00,Wunderground v.1.15,2013-08-12 22:55:00,
2013-08-12 16:01:00,98.8,50.8,29.54,WSW,240,6.0,8.0,20,0.00,,,0.00,Wunderground v.1.15,2013-08-12 23:01:00,
2013-08-12 16:07:00,98.9,49.5,29.54,SSW,194,5.0,8.0,19,0.00,,,0.00,Wunderground v.1.15,2013-08-12 23:07:00,
2013-08-12 16:12:00,99.2,51.1,29.54,SW,221,6.0,7.0,20,0.00,,,0.00,Wunderground v.1.15,2013-08-12 23:12:00,
2013-08-12 16:18:00,99.8,50.2,29.55,South,186,8.0,12.0,19,0.00,,,0.00,Wunderground v.1.15,2013-08-12 23:18:00,
2013-08-12 16:23:00,100.3,50.6,29.55,SSW,198,7.0,14.0,19,0.00,,,0.00,Wunderground v.1.15,2013-08-12 23:23:00,
2013-08-12 16:29:00,100.3,50.6,29.55,SW,221,8.0,14.0,19,0.00,,,0.00,Wunderground v.1.15,2013-08-12 23:29:00,
2013-08-12 16:34:00,100.4,49.2,29.54,NE,53,6.0,8.0,18,0.00,,,0.00,Wunderground v.1.15,2013-08-12 23:34:00,
2013-08-12 16:40:00,100.1,49.0,29.54,NNW,348,3.0,3.0,18,0.00,,,0.00,Wunderground v.1.15,2013-08-12 23:40:00,
2013-08-12 16:45:00,99.9,47.3,29.54,SSW,207,5.0,12.0,17,0.00,,,0.00,Wunderground v.1.15,2013-08-12 23:45:00,
2013-08-12 16:51:00,99.6,47.0,29.54,West,260,8.0,13.0,17,0.00,,,0.00,Wunderground v.1.15,2013-08-12 23:51:00,
2013-08-12 16:57:00,99.6,47.0,29.55,NNW,330,7.0,15.0,17,0.00,,,0.00,Wunderground v.1.15,2013-08-12 23:57:00,
2013-08-12 17:02:00,100.0,45.8,29.54,SSE,153,5.0,7.0,16,0.00,,,0.00,Wunderground v.1.15,2013-08-13 00:02:00,
2013-08-12 17:08:00,100.1,44.1,29.54,West,264,6.0,14.0,15,0.00,,,0.00,Wunderground v.1.15,2013-08-13 00:08:00,
2013-08-12 17:13:00,100.1,44.1,29.54,SW,224,7.0,14.0,15,0.00,,,0.00,Wunderground v.1.15,2013-08-13 00:13:00,
2013-08-12 17:19:00,99.2,43.4,29.54,West,267,7.0,14.0,15,0.00,,,0.00,Wunderground v.1.15,2013-08-13 00:19:00,
2013-08-12 17:25:00,98.9,43.2,29.54,SSE,167,8.0,13.0,15,0.00,,,0.00,Wunderground v.1.15,2013-08-13 00:25:00,
2013-08-12 17:31:00,98.7,44.7,29.54,WSW,246,9.0,14.0,16,0.00,,,0.00,Wunderground v.1.15,2013-08-13 00:31:00,
2013-08-12 17:37:00,98.5,44.6,29.54,WSW,238,8.0,14.0,16,0.00,,,0.00,Wunderground v.1.15,2013-08-13 00:37:00,
2013-08-12 17:42:00,98.7,43.0,29.54,WSW,242,6.0,12.0,15,0.00,,,0.00,Wunderground v.1.15,2013-08-13 00:42:00,
2013-08-12 17:48:00,98.5,42.9,29.54,West,271,7.0,12.0,15,0.00,,,0.00,Wunderground v.1.15,2013-08-13 00:48:00,
2013-08-12 17:53:00,98.5,42.9,29.54,SSW,211,7.0,10.0,15,0.00,,,0.00,Wunderground v.1.15,2013-08-13 00:53:00,
2013-08-12 17:59:00,98.4,42.8,29.54,WSW,242,6.0,10.0,15,0.00,,,0.00,Wunderground v.1.15,2013-08-13 00:59:00,
2013-08-12 18:04:00,98.1,42.6,29.54,West,271,7.0,10.0,15,0.00,,,0.00,Wunderground v.1.15,2013-08-13 01:04:00,
2013-08-12 18:09:00,98.0,42.5,29.55,SW,226,7.0,10.0,15,0.00,,,0.00,Wunderground v.1.15,2013-08-13 01:09:00,
2013-08-12 18:14:00,97.6,42.2,29.55,WSW,253,5.0,8.0,15,0.00,,,0.00,Wunderground v.1.15,2013-08-13 01:14:00,
2013-08-12 18:20:00,97.3,41.9,29.54,WSW,239,5.0,9.0,15,0.00,,,0.00,Wunderground v.1.15,2013-08-13 01:20:00,
2013-08-12 18:25:00,97.0,41.7,29.55,WSW,239,6.0,14.0,15,0.00,,,0.00,Wunderground v.1.15,2013-08-13 01:25:00,
2013-08-12 18:31:00,96.8,41.5,29.55,SW,236,6.0,8.0,15,0.00,,,0.00,Wunderground v.1.15,2013-08-13 01:31:00,
2013-08-12 18:37:00,96.7,41.4,29.55,WNW,296,5.0,8.0,15,0.00,,,0.00,Wunderground v.1.15,2013-08-13 01:37:00,
2013-08-12 18:43:00,96.5,41.3,29.55,NW,311,3.0,5.0,15,0.00,,,0.00,Wunderground v.1.15,2013-08-13 01:43:00,
2013-08-12 18:49:00,96.4,41.2,29.55,SSW,211,3.0,9.0,15,0.00,,,0.00,Wunderground v.1.15,2013-08-13 01:49:00,
2013-08-12 18:54:00,96.3,41.1,29.55,WNW,289,5.0,6.0,15,0.00,,,0.00,Wunderground v.1.15,2013-08-13 01:54:00,
2013-08-12 19:00:00,96.1,39.2,29.55,SW,226,4.0,4.0,14,0.00,,,0.00,Wunderground v.1.15,2013-08-13 02:00:00,
2013-08-12 19:06:00,95.9,39.0,29.55,SSW,211,3.0,7.0,14,0.00,,,0.00,Wunderground v.1.15,2013-08-13 02:06:00,
2013-08-12 19:11:00,95.6,36.9,29.55,SW,229,6.0,13.0,13,0.00,,,0.00,Wunderground v.1.15,2013-08-13 02:11:00,
2013-08-12 19:15:00,95.5,36.8,29.55,WSW,255,8.0,13.0,13,0.00,,,0.00,Wunderground v.1.15,2013-08-13 02:15:00,
2013-08-12 19:21:00,95.3,34.7,29.56,WSW,250,8.0,10.0,12,0.00,,,0.00,Wunderground v.1.15,2013-08-13 02:21:00,
2013-08-12 19:26:00,95.2,34.6,29.56,WSW,238,7.0,13.0,12,0.00,,,0.00,Wunderground v.1.15,2013-08-13 02:26:00,
2013-08-12 19:31:00,94.9,34.3,29.56,WSW,239,6.0,10.0,12,0.00,,,0.00,Wunderground v.1.15,2013-08-13 02:31:00,
2013-08-12 19:36:00,94.7,34.2,29.57,WNW,284,6.0,10.0,12,0.00,,,0.00,Wunderground v.1.15,2013-08-13 02:36:00,
2013-08-12 19:42:00,94.5,34.0,29.57,WSW,246,5.0,9.0,12,0.00,,,0.00,Wunderground v.1.15,2013-08-13 02:42:00,
2013-08-12 19:48:00,94.3,33.9,29.57,NW,322,5.0,10.0,12,0.00,,,0.00,Wunderground v.1.15,2013-08-13 02:48:00,
2013-08-12 19:53:00,94.0,33.7,29.58,NW,306,5.0,6.0,12,0.00,,,0.00,Wunderground v.1.15,2013-08-13 02:53:00,
2013-08-12 19:59:00,93.7,33.4,29.58,SSW,195,4.0,6.0,12,0.00,,,0.00,Wunderground v.1.15,2013-08-13 02:59:00,
2013-08-12 20:04:00,93.4,33.2,29.59,ESE,110,2.0,3.0,12,0.00,,,0.00,Wunderground v.1.15,2013-08-13 03:04:00,
2013-08-12 20:10:00,93.1,35.0,29.59,WNW,285,2.0,3.0,13,0.00,,,0.00,Wunderground v.1.15,2013-08-13 03:10:00,
2013-08-12 20:15:00,93.0,32.9,29.59,West,266,5.0,10.0,12,0.00,,,0.00,Wunderground v.1.15,2013-08-13 03:15:00,
2013-08-12 20:20:00,93.0,32.9,29.59,SSW,203,6.0,6.0,12,0.00,,,0.00,Wunderground v.1.15,2013-08-13 03:20:00,
2013-08-12 20:25:00,92.7,34.7,29.60,West,267,5.0,7.0,13,0.00,,,0.00,Wunderground v.1.15,2013-08-13 03:25:00,
2013-08-12 20:31:00,92.6,34.6,29.60,West,268,5.0,5.0,13,0.00,,,0.00,Wunderground v.1.15,2013-08-13 03:31:00,
2013-08-12 20:36:00,92.5,34.5,29.60,NW,314,5.0,9.0,13,0.00,,,0.00,Wunderground v.1.15,2013-08-13 03:36:00,
2013-08-12 20:41:00,92.4,34.4,29.61,WSW,250,5.0,14.0,13,0.00,,,0.00,Wunderground v.1.15,2013-08-13 03:41:00,
2013-08-12 20:47:00,92.2,34.3,29.61,WSW,250,6.0,14.0,13,0.00,,,0.00,Wunderground v.1.15,2013-08-13 03:47:00,
2013-08-12 20:53:00,92.1,34.2,29.62,WSW,241,6.0,11.0,13,0.00,,,0.00,Wunderground v.1.15,2013-08-13 03:53:00,
2013-08-12 20:59:00,92.1,34.2,29.62,West,259,8.0,11.0,13,0.00,,,0.00,Wunderground v.1.15,2013-08-13 03:59:00,
2013-08-12 21:01:00,92.0,34.1,29.62,WSW,245,7.0,8.0,13,0.00,,,0.00,Wunderground v.1.15,2013-08-13 04:01:00,
2013-08-12 21:03:00,92.0,34.1,29.62,SW,233,7.0,11.0,13,0.00,,,0.00,Wunderground v.1.15,2013-08-13 04:03:00,
2013-08-12 21:04:00,91.9,34.0,29.62,SW,231,7.0,11.0,13,0.00,,,0.00,Wunderground v.1.15,2013-08-13 04:04:00,
2013-08-12 21:08:00,91.8,33.9,29.62,WSW,246,7.0,13.0,13,0.00,,,0.00,Wunderground v.1.15,2013-08-13 04:08:00,
2013-08-12 21:09:00,91.8,33.9,29.62,WSW,250,7.0,13.0,13,0.00,,,0.00,Wunderground v.1.15,2013-08-13 04:09:00,
2013-08-12 21:14:00,91.6,33.8,29.62,WSW,258,8.0,9.0,13,0.00,,,0.00,Wunderground v.1.15,2013-08-13 04:14:00,
2013-08-12 21:19:00,91.5,33.7,29.62,WSW,239,7.0,12.0,13,0.00,,,0.00,Wunderground v.1.15,2013-08-13 04:19:00,
2013-08-12 21:24:00,91.5,33.7,29.63,WSW,252,9.0,13.0,13,0.00,,,0.00,Wunderground v.1.15,2013-08-13 04:24:00,
2013-08-12 21:30:00,91.1,33.4,29.63,WSW,256,11.0,11.0,13,0.00,,,0.00,Wunderground v.1.15,2013-08-13 04:30:00,
2013-08-12 21:35:00,90.8,33.2,29.63,West,281,9.0,11.0,13,0.00,,,0.00,Wunderground v.1.15,2013-08-13 04:35:00,
2013-08-12 21:41:00,90.6,33.0,29.63,West,281,7.0,10.0,13,0.00,,,0.00,Wunderground v.1.15,2013-08-13 04:41:00,
2013-08-12 21:47:00,90.2,32.7,29.63,SSE,153,7.0,10.0,13,0.00,,,0.00,Wunderground v.1.15,2013-08-13 04:47:00,
2013-08-12 21:52:00,90.1,32.6,29.63,SW,228,6.0,7.0,13,0.00,,,0.00,Wunderground v.1.15,2013-08-13 04:52:00,
2013-08-12 21:58:00,89.8,32.4,29.64,NE,56,4.0,7.0,13,0.00,,,0.00,Wunderground v.1.15,2013-08-13 04:58:00,
2013-08-12 22:03:00,89.5,32.2,29.64,NNW,329,2.0,6.0,13,0.00,,,0.00,Wunderground v.1.15,2013-08-13 05:03:00,
2013-08-12 22:09:00,89.5,34.0,29.64,ENE,75,4.0,6.0,14,0.00,,,0.00,Wunderground v.1.15,2013-08-13 05:09:00,
2013-08-12 22:14:00,89.2,33.8,29.64,ENE,68,4.0,5.0,14,0.00,,,0.00,Wunderground v.1.15,2013-08-13 05:14:00,
2013-08-12 22:19:00,88.7,33.4,29.64,ENE,65,4.0,6.0,14,0.00,,,0.00,Wunderground v.1.15,2013-08-13 05:19:00,
2013-08-12 22:24:00,87.7,34.3,29.65,ENE,64,4.0,4.0,15,0.00,,,0.00,Wunderground v.1.15,2013-08-13 05:24:00,
2013-08-12 22:30:00,87.3,34.0,29.65,NE,43,2.0,2.0,15,0.00,,,0.00,Wunderground v.1.15,2013-08-13 05:30:00,
2013-08-12 22:35:00,86.6,33.4,29.65,NE,43,1.0,2.0,15,0.00,,,0.00,Wunderground v.1.15,2013-08-13 05:35:00,
2013-08-12 22:41:00,86.2,34.7,29.65,NW,321,1.0,2.0,16,0.00,,,0.00,Wunderground v.1.15,2013-08-13 05:41:00,
2013-08-12 22:46:00,86.3,34.8,29.65,NNW,342,2.0,5.0,16,0.00,,,0.00,Wunderground v.1.15,2013-08-13 05:46:00,
2013-08-12 22:51:00,86.8,33.6,29.65,WNW,301,3.0,6.0,15,0.00,,,0.00,Wunderground v.1.15,2013-08-13 05:51:00,
2013-08-12 22:57:00,86.7,33.5,29.65,NW,313,4.0,6.0,15,0.00,,,0.00,Wunderground v.1.15,2013-08-13 05:57:00,
2013-08-12 23:02:00,86.4,33.3,29.65,WNW,297,5.0,5.0,15,0.00,,,0.00,Wunderground v.1.15,2013-08-13 06:02:00,
2013-08-12 23:07:00,86.2,33.1,29.65,WNW,295,5.0,8.0,15,0.00,,,0.00,Wunderground v.1.15,2013-08-13 06:07:00,
2013-08-12 23:12:00,86.8,33.6,29.65,NW,321,4.0,4.0,15,0.00,,,0.00,Wunderground v.1.15,2013-08-13 06:12:00,
2013-08-12 23:18:00,86.4,33.3,29.65,NW,326,3.0,4.0,15,0.00,,,0.00,Wunderground v.1.15,2013-08-13 06:18:00,
2013-08-12 23:24:00,86.2,33.1,29.65,NW,306,3.0,4.0,15,0.00,,,0.00,Wunderground v.1.15,2013-08-13 06:24:00,
2013-08-12 23:30:00,86.1,33.0,29.65,WNW,297,4.0,4.0,15,0.00,,,0.00,Wunderground v.1.15,2013-08-13 06:30:00,
2013-08-12 23:35:00,85.6,34.2,29.65,WNW,292,4.0,5.0,16,0.00,,,0.00,Wunderground v.1.15,2013-08-13 06:35:00,
2013-08-12 23:41:00,85.9,32.9,29.65,NW,304,4.0,6.0,15,0.00,,,0.00,Wunderground v.1.15,2013-08-13 06:41:00,
2013-08-12 23:47:00,85.7,34.3,29.65,WNW,290,3.0,6.0,16,0.00,,,0.00,Wunderground v.1.15,2013-08-13 06:47:00,
2013-08-12 23:52:00,85.3,34.0,29.65,NW,323,3.0,4.0,16,0.00,,,0.00,Wunderground v.1.15,2013-08-13 06:52:00,
2013-08-12 23:58:00,85.4,32.5,29.65,NW,326,3.0,5.0,15,0.00,,,0.00,Wunderground v.1.15,2013-08-13 06:58:00,